createdAt,value
2023-02-13T00:00:46.944Z,8.99
2023-02-13T00:03:14.292Z,8.96
2023-02-13T00:05:41.103Z,8.92
2023-02-13T00:08:07.803Z,8.87
2023-02-13T00:10:34.525Z,8.83
2023-02-13T00:13:01.245Z,8.81
2023-02-13T00:15:28.017Z,8.76
2023-02-13T00:17:54.818Z,8.73
2023-02-13T00:20:22.200Z,8.70
2023-02-13T00:22:48.912Z,8.65
2023-02-13T00:25:15.772Z,8.62
2023-02-13T00:27:42.551Z,8.60
2023-02-13T00:30:10.055Z,8.58
2023-02-13T00:32:36.944Z,8.57
2023-02-13T00:35:04.090Z,8.55
2023-02-13T00:37:30.988Z,8.51
2023-02-13T00:39:57.864Z,8.51
2023-02-13T00:42:26.527Z,8.50
2023-02-13T00:44:54.406Z,8.49
2023-02-13T00:47:21.817Z,8.47
2023-02-13T00:49:48.692Z,8.44
2023-02-13T00:52:15.468Z,8.43
2023-02-13T00:54:42.203Z,8.40
2023-02-13T00:57:08.973Z,8.36
2023-02-13T00:59:35.685Z,8.35
2023-02-13T01:02:02.447Z,8.33
2023-02-13T01:04:29.291Z,8.32
2023-02-13T01:06:56.022Z,8.30
2023-02-13T01:09:22.776Z,8.30
2023-02-13T01:11:49.525Z,8.29
2023-02-13T01:14:16.329Z,8.30
2023-02-13T01:16:43.097Z,8.31
2023-02-13T01:19:09.980Z,8.32
2023-02-13T01:21:36.720Z,8.33
2023-02-13T01:24:05.985Z,8.34
2023-02-13T01:26:32.815Z,8.35
2023-02-13T01:28:59.637Z,8.35
2023-02-13T01:31:27.405Z,8.36
2023-02-13T01:33:58.351Z,8.37
2023-02-13T01:36:26.185Z,8.36
2023-02-13T01:38:56.241Z,8.37
2023-02-13T01:41:25.439Z,8.35
2023-02-13T01:43:58.325Z,8.35
2023-02-13T01:46:31.264Z,8.33
2023-02-13T01:49:12.091Z,8.29
2023-02-13T01:51:40.434Z,8.27
2023-02-13T01:54:21.007Z,8.22
2023-02-13T01:56:57.409Z,8.18
2023-02-13T01:59:35.259Z,8.13
2023-02-13T02:02:03.290Z,8.10
2023-02-13T02:04:37.692Z,8.06
2023-02-13T02:07:16.485Z,8.05
2023-02-13T02:09:45.382Z,8.04
2023-02-13T02:12:36.059Z,8.02
2023-02-13T02:15:05.941Z,8.00
2023-02-13T02:17:32.813Z,8.00
2023-02-13T02:20:36.295Z,8.01
2023-02-13T02:23:24.428Z,8.00
2023-02-13T02:26:08.868Z,8.02
2023-02-13T02:29:05.508Z,8.04
2023-02-13T02:32:17.609Z,8.04
2023-02-13T02:35:05.447Z,8.01
2023-02-13T02:38:03.122Z,8.02
2023-02-13T02:41:04.383Z,8.01
2023-02-13T02:44:20.228Z,8.01
2023-02-13T02:47:35.826Z,7.98
2023-02-13T02:50:26.797Z,8.00
2023-02-13T02:53:02.075Z,8.02
2023-02-13T02:55:50.832Z,8.05
2023-02-13T02:58:57.885Z,8.06
2023-02-13T03:01:49.078Z,8.03
2023-02-13T03:05:02.041Z,8.02
2023-02-13T03:07:28.844Z,8.01
2023-02-13T03:10:29.770Z,8.01
2023-02-13T03:13:21.880Z,7.98
2023-02-13T03:16:13.181Z,7.97
2023-02-13T03:19:04.833Z,7.96
2023-02-13T03:22:15.243Z,7.93
2023-02-13T03:25:12.429Z,7.87
2023-02-13T03:28:14.478Z,7.85
2023-02-13T03:31:35.074Z,7.82
2023-02-13T03:34:20.452Z,7.77
2023-02-13T03:37:26.122Z,7.75
2023-02-13T03:40:08.456Z,7.72
2023-02-13T03:42:51.627Z,7.74
2023-02-13T03:45:45.460Z,7.73
2023-02-13T03:48:36.748Z,7.71
2023-02-13T03:51:08.203Z,7.70
2023-02-13T03:53:39.317Z,7.69
2023-02-13T03:56:27.985Z,7.68
2023-02-13T03:59:14.634Z,7.66
2023-02-13T04:02:00.718Z,7.64
2023-02-13T04:04:46.276Z,7.63
2023-02-13T04:07:29.567Z,7.62
2023-02-13T04:10:11.329Z,7.59
2023-02-13T04:13:12.128Z,7.57
2023-02-13T04:16:06.836Z,7.53
2023-02-13T04:18:34.956Z,7.50
2023-02-13T04:21:04.885Z,7.51
2023-02-13T04:23:31.713Z,7.49
2023-02-13T04:26:03.700Z,7.49
2023-02-13T04:28:30.564Z,7.49
2023-02-13T04:30:58.208Z,7.50
2023-02-13T04:33:25.281Z,7.50
2023-02-13T04:35:52.010Z,7.48
2023-02-13T04:38:18.733Z,7.47
2023-02-13T04:40:45.464Z,7.45
2023-02-13T04:43:12.188Z,7.45
2023-02-13T04:45:38.988Z,7.44
2023-02-13T04:48:05.820Z,7.41
2023-02-13T04:50:32.575Z,7.37
2023-02-13T04:52:59.328Z,7.36
2023-02-13T04:55:28.261Z,7.35
2023-02-13T04:57:55.852Z,7.34
2023-02-13T05:00:26.864Z,7.32
2023-02-13T05:02:54.047Z,7.29
2023-02-13T05:05:21.317Z,7.27
2023-02-13T05:07:48.091Z,7.26
2023-02-13T05:10:14.869Z,7.22
2023-02-13T05:13:43.853Z,7.19
2023-02-13T05:16:13.803Z,7.12
2023-02-13T05:18:45.298Z,7.08
2023-02-13T05:21:30.513Z,7.07
2023-02-13T05:23:57.352Z,7.03
2023-02-13T05:26:24.308Z,7.02
2023-02-13T05:29:09.668Z,6.99
2023-02-13T05:31:36.470Z,6.95
2023-02-13T05:34:03.346Z,6.93
2023-02-13T05:36:30.080Z,6.92
2023-02-13T05:38:56.844Z,6.89
2023-02-13T05:41:23.602Z,6.86
2023-02-13T05:55:04.462Z,6.63
2023-02-13T05:57:32.137Z,6.59
2023-02-13T06:00:00.147Z,6.64
2023-02-13T06:02:26.924Z,6.66
2023-02-13T06:04:53.673Z,6.68
2023-02-13T06:07:20.482Z,6.70
2023-02-13T06:09:47.231Z,6.71
2023-02-13T06:12:14.061Z,6.73
2023-02-13T06:14:40.904Z,6.75
2023-02-13T06:17:07.603Z,6.76
2023-02-13T06:19:34.476Z,6.78
2023-02-13T06:22:01.207Z,6.77
2023-02-13T06:24:28.001Z,6.77
2023-02-13T06:26:54.733Z,6.78
2023-02-13T06:29:21.439Z,6.78
2023-02-13T06:31:48.200Z,6.79
2023-02-13T06:34:15.006Z,6.78
2023-02-13T06:36:42.602Z,6.81
2023-02-13T06:39:11.184Z,6.81
2023-02-13T06:41:37.882Z,6.80
2023-02-13T06:44:04.705Z,6.81
2023-02-13T06:46:31.429Z,6.80
2023-02-13T06:48:58.162Z,6.82
2023-02-13T06:51:24.954Z,6.82
2023-02-13T06:53:51.694Z,6.82
2023-02-13T06:56:18.933Z,6.82
2023-02-13T06:58:46.312Z,6.83
2023-02-13T07:01:13.045Z,6.83
2023-02-13T07:03:39.920Z,6.85
2023-02-13T07:06:06.872Z,6.91
2023-02-13T07:08:33.718Z,7.01
2023-02-13T07:11:00.447Z,7.15
2023-02-13T07:13:27.130Z,7.34
2023-02-13T07:15:53.947Z,7.59
2023-02-13T07:18:20.660Z,7.89
2023-02-13T07:20:47.442Z,8.22
2023-02-13T07:23:14.209Z,8.61
2023-02-13T07:25:40.940Z,9.02
2023-02-13T07:28:07.703Z,9.50
2023-02-13T07:30:35.530Z,10.04
2023-02-13T07:33:04.012Z,10.62
2023-02-13T07:35:31.620Z,11.27
2023-02-13T07:38:00.397Z,11.97
2023-02-13T07:40:27.471Z,12.66
2023-02-13T07:42:54.201Z,13.37
2023-02-13T07:45:20.945Z,14.03
2023-02-13T07:47:47.661Z,14.60
2023-02-13T07:50:14.442Z,15.09
2023-02-13T07:52:41.202Z,15.59
2023-02-13T07:55:08.644Z,16.05
2023-02-13T07:57:35.351Z,16.53
2023-02-13T08:00:02.511Z,17.02
2023-02-13T08:02:29.266Z,17.48
2023-02-13T08:04:56.028Z,17.93
2023-02-13T08:07:22.793Z,18.31
2023-02-13T08:10:08.113Z,18.78
2023-02-13T08:12:36.607Z,19.37
2023-02-13T08:15:04.292Z,19.96
2023-02-13T08:17:31.075Z,20.52
2023-02-13T08:19:58.468Z,21.09
2023-02-13T08:22:25.203Z,21.69
2023-02-13T08:24:52.056Z,22.29
2023-02-13T08:27:18.752Z,22.84
2023-02-13T08:29:45.498Z,23.31
2023-02-13T08:32:14.853Z,23.69
2023-02-13T08:34:42.555Z,23.92
2023-02-13T08:37:09.284Z,23.99
2023-02-13T08:39:35.988Z,23.95
2023-02-13T08:42:04.139Z,23.85
2023-02-13T08:44:31.587Z,23.80
2023-02-13T08:47:00.983Z,23.76
2023-02-13T08:49:27.677Z,23.76
2023-02-13T08:51:54.379Z,23.75
2023-02-13T08:54:21.091Z,23.75
2023-02-13T08:56:47.866Z,23.66
2023-02-13T08:59:14.856Z,23.53
2023-02-13T09:01:42.071Z,23.44
2023-02-13T09:04:09.040Z,23.43
2023-02-13T09:06:35.756Z,23.41
2023-02-13T09:09:04.668Z,23.39
2023-02-13T09:11:31.384Z,23.39
2023-02-13T09:13:58.134Z,23.38
2023-02-13T09:16:24.852Z,23.42
2023-02-13T09:18:52.397Z,23.55
2023-02-13T09:21:23.524Z,23.68
2023-02-13T09:23:51.509Z,23.84
2023-02-13T09:26:20.652Z,24.01
2023-02-13T09:28:48.233Z,24.21
2023-02-13T09:31:19.567Z,24.31
2023-02-13T09:33:48.502Z,24.30
2023-02-13T09:36:20.070Z,24.31
2023-02-13T09:38:52.207Z,24.37
2023-02-13T09:41:26.513Z,24.47
2023-02-13T09:44:07.647Z,24.49
2023-02-13T09:46:38.575Z,24.43
2023-02-13T09:49:16.825Z,24.32
2023-02-13T09:51:46.656Z,24.26
2023-02-13T09:54:19.146Z,24.24
2023-02-13T09:57:31.155Z,24.27
2023-02-13T10:00:22.086Z,24.41
2023-02-13T10:03:29.192Z,24.75
2023-02-13T10:06:50.269Z,25.03
2023-02-13T10:09:52.176Z,25.30
2023-02-13T10:12:49.471Z,25.52
2023-02-13T10:15:49.580Z,25.58
2023-02-13T10:18:32.059Z,25.59
2023-02-13T10:21:02.379Z,25.66
2023-02-13T10:23:40.563Z,25.80
2023-02-13T10:26:42.686Z,25.96
2023-02-13T10:30:00.917Z,26.10
2023-02-13T10:33:11.094Z,26.09
2023-02-13T10:35:38.967Z,26.08
2023-02-13T10:38:20.336Z,26.11
2023-02-13T10:41:13.938Z,26.23
2023-02-13T10:44:13.009Z,26.42
2023-02-13T10:47:07.019Z,26.64
2023-02-13T10:49:58.488Z,26.83
2023-02-13T10:53:04.491Z,26.86
2023-02-13T10:55:55.328Z,26.89
2023-02-13T10:59:02.197Z,26.91
2023-02-13T11:01:40.439Z,26.95
2023-02-13T11:04:13.392Z,27.02
2023-02-13T11:06:57.467Z,27.04
2023-02-13T11:09:24.720Z,27.07
2023-02-13T11:11:52.557Z,27.11
2023-02-13T11:14:26.939Z,27.04
2023-02-13T11:17:01.162Z,26.92
2023-02-13T11:19:46.235Z,26.83
2023-02-13T11:22:26.678Z,26.71
2023-02-13T11:25:00.504Z,26.54
2023-02-13T11:27:33.264Z,26.44
2023-02-13T11:30:06.717Z,26.44
2023-02-13T11:32:35.230Z,26.45
2023-02-13T11:35:33.877Z,26.39
2023-02-13T11:38:16.002Z,26.31
2023-02-13T11:40:49.342Z,26.31
2023-02-13T11:43:29.279Z,26.27
2023-02-13T11:46:17.391Z,26.17
2023-02-13T11:48:56.507Z,26.07
2023-02-13T11:51:39.683Z,25.89
2023-02-13T11:54:17.475Z,25.67
2023-02-13T11:57:04.446Z,25.42
2023-02-13T11:59:41.691Z,25.21
2023-02-13T12:02:29.275Z,25.03
2023-02-13T12:05:23.573Z,24.81
2023-02-13T12:07:51.160Z,24.65
2023-02-13T12:10:28.403Z,24.51
2023-02-13T12:13:13.638Z,24.33
2023-02-13T12:15:43.216Z,24.20
2023-02-13T12:18:21.699Z,24.05
2023-02-13T12:20:57.399Z,23.90
2023-02-13T12:24:02.457Z,23.70
2023-02-13T12:26:40.569Z,23.44
2023-02-13T12:29:29.142Z,23.19
2023-02-13T12:32:40.420Z,22.86
2023-02-13T12:35:34.280Z,22.54
2023-02-13T12:38:26.039Z,22.23
2023-02-13T12:41:22.532Z,21.93
2023-02-13T12:44:19.044Z,21.66
2023-02-13T12:47:11.716Z,21.44
2023-02-13T12:49:59.226Z,21.26
2023-02-13T12:52:59.239Z,21.08
2023-02-13T12:55:36.335Z,20.92
2023-02-13T12:58:43.314Z,20.76
2023-02-13T13:01:38.588Z,20.65
2023-02-13T13:04:25.763Z,20.52
2023-02-13T13:07:15.704Z,20.45
2023-02-13T13:10:12.125Z,20.36
2023-02-13T13:13:04.769Z,20.26
2023-02-13T13:15:46.194Z,20.16
2023-02-13T13:18:24.885Z,20.03
2023-02-13T13:21:16.436Z,19.91
2023-02-13T13:24:01.468Z,19.75
2023-02-13T13:26:37.279Z,19.59
2023-02-13T13:29:15.404Z,19.47
2023-02-13T13:32:01.450Z,19.35
2023-02-13T13:34:35.258Z,19.25
2023-02-13T13:37:29.287Z,19.14
2023-02-13T13:40:39.142Z,18.97
2023-02-13T13:43:27.678Z,18.83
2023-02-13T13:46:13.697Z,18.74
2023-02-13T13:49:25.127Z,18.60
2023-02-13T13:51:51.882Z,18.52
2023-02-13T13:54:23.822Z,18.46
2023-02-13T13:56:53.317Z,18.41
2023-02-13T13:59:48.576Z,18.31
2023-02-13T14:02:18.356Z,18.22
2023-02-13T14:05:24.897Z,18.13
2023-02-13T14:07:59.122Z,18.05
2023-02-13T14:10:26.122Z,17.99
2023-02-13T14:12:55.588Z,17.93
2023-02-13T14:15:34.636Z,17.86
2023-02-13T14:18:17.459Z,17.80
2023-02-13T14:20:59.255Z,17.70
2023-02-13T14:23:50.291Z,17.62
2023-02-13T14:26:27.865Z,17.57
2023-02-13T14:29:01.853Z,17.50
2023-02-13T14:31:39.233Z,17.47
2023-02-13T14:34:11.844Z,17.42
2023-02-13T14:36:42.574Z,17.36
2023-02-13T14:39:31.141Z,17.29
2023-02-13T14:42:00.998Z,17.23
2023-02-13T14:44:47.292Z,17.16
2023-02-13T14:47:22.408Z,17.11
2023-02-13T14:49:51.580Z,17.07
2023-02-13T14:52:32.700Z,17.08
2023-02-13T14:55:16.937Z,17.05
2023-02-13T14:57:49.014Z,17.03
2023-02-13T15:00:42.920Z,16.99
2023-02-13T15:03:40.371Z,16.97
2023-02-13T15:06:25.524Z,16.96
2023-02-13T15:08:55.721Z,16.93
2023-02-13T15:11:42.734Z,16.89
2023-02-13T15:14:36.613Z,16.84
2023-02-13T15:17:24.076Z,16.79
2023-02-13T15:19:54.582Z,16.76
2023-02-13T15:22:40.012Z,16.75
2023-02-13T15:25:09.376Z,16.74
2023-02-13T15:27:46.085Z,16.72
2023-02-13T15:30:27.081Z,16.71
2023-02-13T15:33:00.839Z,16.69
2023-02-13T15:35:37.521Z,16.67
2023-02-13T15:38:29.231Z,16.62
2023-02-13T15:41:16.768Z,16.59
2023-02-13T15:43:50.809Z,16.56
2023-02-13T15:46:34.026Z,16.51
2023-02-13T15:49:06.997Z,16.46
2023-02-13T15:51:34.784Z,16.39
2023-02-13T15:54:06.315Z,16.37
2023-02-13T15:56:34.802Z,16.33
2023-02-13T15:59:03.372Z,16.30
2023-02-13T16:01:32.146Z,16.24
2023-02-13T16:04:08.532Z,16.18
2023-02-13T16:06:36.323Z,16.12
2023-02-13T16:09:03.851Z,16.08
2023-02-13T16:11:38.600Z,16.01
2023-02-13T16:14:27.879Z,15.92
2023-02-13T16:17:16.786Z,15.86
2023-02-13T16:20:06.678Z,15.77
2023-02-13T16:22:43.209Z,15.70
2023-02-13T16:25:12.711Z,15.65
2023-02-13T16:27:50.413Z,15.60
2023-02-13T16:30:24.543Z,15.55
2023-02-13T16:32:51.534Z,15.47
2023-02-13T16:35:29.934Z,15.43
2023-02-13T16:38:02.160Z,15.37
2023-02-13T16:40:33.150Z,15.30
2023-02-13T16:43:34.530Z,15.20
2023-02-13T16:46:22.032Z,15.12
2023-02-13T16:48:59.737Z,15.05
2023-02-13T16:51:34.326Z,14.99
2023-02-13T16:54:12.227Z,14.93
2023-02-13T16:57:15.516Z,14.85
2023-02-13T16:59:48.082Z,14.77
2023-02-13T17:02:17.793Z,14.71
2023-02-13T17:05:14.715Z,14.64
2023-02-13T17:07:54.607Z,14.96
2023-02-13T17:10:37.415Z,14.76
2023-02-13T17:13:13.264Z,14.58
2023-02-13T17:15:46.744Z,14.44
2023-02-13T17:18:13.810Z,14.35
2023-02-13T17:20:43.905Z,14.29
2023-02-13T17:23:22.421Z,14.21
2023-02-13T17:25:51.291Z,14.13
2023-02-13T17:28:22.277Z,14.08
2023-02-13T17:30:52.885Z,14.03
2023-02-13T17:33:34.163Z,13.96
2023-02-13T17:36:00.864Z,13.90
2023-02-13T17:38:27.626Z,13.83
2023-02-13T17:40:54.531Z,13.76
2023-02-13T17:43:21.690Z,13.71
2023-02-13T17:45:49.901Z,13.64
2023-02-13T17:48:17.188Z,13.59
2023-02-13T17:50:44.709Z,13.52
2023-02-13T17:53:30.107Z,13.46
2023-02-13T17:55:56.982Z,13.40
2023-02-13T17:58:23.801Z,13.37
2023-02-13T18:00:51.277Z,13.31
2023-02-13T18:03:18.265Z,13.25
2023-02-13T18:05:48.583Z,13.21
2023-02-13T18:08:15.799Z,13.16
2023-02-13T18:10:42.570Z,13.12
2023-02-13T18:13:09.320Z,13.08
2023-02-13T18:15:41.922Z,13.03
2023-02-13T18:18:09.959Z,12.99
2023-02-13T18:20:36.761Z,12.92
2023-02-13T18:23:03.576Z,12.87
2023-02-13T18:25:30.306Z,12.84
2023-02-13T18:27:57.061Z,12.80
2023-02-13T18:30:24.469Z,12.76
2023-02-13T18:32:58.918Z,12.73
2023-02-13T18:35:26.527Z,12.68
2023-02-13T18:37:53.690Z,12.63
2023-02-13T18:40:20.726Z,12.58
2023-02-13T18:42:48.427Z,12.53
2023-02-13T18:45:16.430Z,12.48
2023-02-13T18:47:43.161Z,12.45
2023-02-13T18:50:10.313Z,12.40
2023-02-13T18:52:37.097Z,12.36
2023-02-13T18:55:06.878Z,12.31
2023-02-13T18:57:33.820Z,12.26
2023-02-13T19:00:00.542Z,12.22
2023-02-13T19:02:27.791Z,12.18
2023-02-13T19:04:54.496Z,12.13
2023-02-13T19:07:21.251Z,12.08
2023-02-13T19:09:48.591Z,12.03
2023-02-13T19:12:15.325Z,11.96
2023-02-13T19:14:42.069Z,11.91
2023-02-13T19:17:10.128Z,11.84
2023-02-13T19:19:37.141Z,11.79
2023-02-13T19:22:04.053Z,11.70
2023-02-13T19:24:30.915Z,11.65
2023-02-13T19:26:57.952Z,11.58
2023-02-13T19:29:24.826Z,11.51
2023-02-13T19:31:51.675Z,11.45
2023-02-13T19:34:18.420Z,11.41
2023-02-13T19:36:45.210Z,11.33
2023-02-13T19:39:12.305Z,11.29
2023-02-13T19:41:42.375Z,11.21
2023-02-13T19:44:09.238Z,11.16
2023-02-13T19:46:37.195Z,11.12
2023-02-13T19:49:05.196Z,11.07
2023-02-13T19:51:34.118Z,11.03
2023-02-13T19:54:07.260Z,10.96
2023-02-13T19:56:37.802Z,10.92
2023-02-13T19:59:07.089Z,10.86
2023-02-13T20:01:34.426Z,10.81
2023-02-13T20:04:01.369Z,10.75
2023-02-13T20:06:34.891Z,10.67
2023-02-13T20:09:08.759Z,10.61
2023-02-13T20:11:35.748Z,10.54
2023-02-13T20:14:04.029Z,10.48
2023-02-13T20:16:35.623Z,10.42
2023-02-13T20:19:09.499Z,10.35
2023-02-13T20:21:37.295Z,10.29
2023-02-13T20:24:05.535Z,10.25
2023-02-13T20:26:32.390Z,10.21
2023-02-13T20:28:59.678Z,10.17
2023-02-13T20:31:28.936Z,10.12
2023-02-13T20:33:57.230Z,10.07
2023-02-13T20:36:31.577Z,10.03
2023-02-13T20:39:02.034Z,10.00
2023-02-13T20:41:33.483Z,9.96
2023-02-13T20:44:04.969Z,9.95
2023-02-13T20:46:36.842Z,9.92
2023-02-13T20:49:07.565Z,9.89
2023-02-13T20:51:35.214Z,9.89
2023-02-13T20:54:02.394Z,9.88
2023-02-13T20:56:29.554Z,9.86
2023-02-13T20:58:59.696Z,9.82
2023-02-13T21:01:31.105Z,9.76
2023-02-13T21:03:59.814Z,9.71
2023-02-13T21:06:36.446Z,9.68
2023-02-13T21:09:05.719Z,9.59
2023-02-13T21:11:34.475Z,9.53
2023-02-13T21:14:02.468Z,9.50
2023-02-13T21:16:34.224Z,9.43
2023-02-13T21:19:05.407Z,9.39
2023-02-13T21:21:35.618Z,9.36
2023-02-13T21:24:08.164Z,9.35
2023-02-13T21:26:36.189Z,9.28
2023-02-13T21:29:04.290Z,9.25
2023-02-13T21:31:46.523Z,9.21
2023-02-13T21:34:16.065Z,9.14
2023-02-13T21:36:45.699Z,9.06
2023-02-13T21:39:13.575Z,9.02
2023-02-13T21:41:59.409Z,8.97
2023-02-13T21:44:39.565Z,8.91
2023-02-13T21:47:08.041Z,8.89
2023-02-13T21:49:35.922Z,8.87
2023-02-13T21:52:02.769Z,8.89
2023-02-13T21:54:29.510Z,8.86
2023-02-13T21:56:56.244Z,8.87
2023-02-13T21:59:23.061Z,8.86
2023-02-13T22:01:51.573Z,8.85
2023-02-13T22:04:18.868Z,8.82
2023-02-13T22:06:51.043Z,8.82
2023-02-13T22:09:20.463Z,8.78
2023-02-13T22:11:47.749Z,8.77
2023-02-13T22:14:17.462Z,8.74
2023-02-13T22:16:45.592Z,8.73
2023-02-13T22:19:15.969Z,8.71
2023-02-13T22:21:43.351Z,8.70
2023-02-13T22:24:10.738Z,8.67
2023-02-13T22:26:40.897Z,8.64
2023-02-13T22:29:11.251Z,8.61
2023-02-13T22:31:38.414Z,8.57
2023-02-13T22:34:06.372Z,8.52
2023-02-13T22:36:38.742Z,8.49
2023-02-13T22:39:07.639Z,8.44
2023-02-13T22:41:34.698Z,8.40
2023-02-13T22:44:01.452Z,8.36
2023-02-13T22:46:33.636Z,8.31
2023-02-13T22:49:01.200Z,8.26
2023-02-13T22:51:31.986Z,8.20
2023-02-13T22:53:59.728Z,8.17
2023-02-13T22:56:30.320Z,8.13
2023-02-13T22:58:57.871Z,8.11
2023-02-13T23:01:28.726Z,8.09
2023-02-13T23:03:56.727Z,8.07
2023-02-13T23:06:24.489Z,8.05
2023-02-13T23:08:53.382Z,8.03
2023-02-13T23:11:43.959Z,8.02
2023-02-13T23:14:11.093Z,7.99
2023-02-13T23:17:01.121Z,7.98
2023-02-13T23:19:29.771Z,7.95
2023-02-13T23:21:56.977Z,7.93
2023-02-13T23:24:23.982Z,7.90
2023-02-13T23:26:50.811Z,7.87
2023-02-13T23:29:17.723Z,7.87
2023-02-13T23:31:44.779Z,7.84
2023-02-13T23:34:11.768Z,7.81
2023-02-13T23:36:38.550Z,7.78
2023-02-13T23:39:05.340Z,7.79
2023-02-13T23:41:32.044Z,7.76
2023-02-13T23:43:58.738Z,7.76
2023-02-13T23:46:25.812Z,7.73
2023-02-13T23:48:52.587Z,7.73
2023-02-13T23:51:21.170Z,7.72
2023-02-13T23:53:47.942Z,7.69
2023-02-13T23:56:14.832Z,7.69
2023-02-13T23:58:41.628Z,7.67
